createdAt,value
2022-12-18T00:04:26.923Z,-5.66
2022-12-18T00:09:40.274Z,-5.64
2022-12-18T00:14:51.877Z,-5.62
2022-12-18T00:20:00.030Z,-5.62
2022-12-18T00:25:09.157Z,-5.62
2022-12-18T00:30:18.145Z,-5.63
2022-12-18T00:35:26.818Z,-5.63
2022-12-18T00:40:34.840Z,-5.63
2022-12-18T00:45:43.082Z,-5.64
2022-12-18T00:50:53.297Z,-5.64
2022-12-18T00:56:01.621Z,-5.65
2022-12-18T01:01:11.052Z,-5.67
2022-12-18T01:06:19.852Z,-5.69
2022-12-18T01:11:28.888Z,-5.71
2022-12-18T01:16:37.452Z,-5.72
2022-12-18T01:21:46.329Z,-5.74
2022-12-18T01:26:55.561Z,-5.74
2022-12-18T01:32:04.372Z,-5.76
2022-12-18T01:37:12.875Z,-5.78
2022-12-18T01:42:21.093Z,-5.81
2022-12-18T01:47:34.785Z,-5.84
2022-12-18T01:52:49.647Z,-5.87
2022-12-18T01:58:01.643Z,-5.92
2022-12-18T02:03:09.854Z,-5.95
2022-12-18T02:08:23.444Z,-6.00
2022-12-18T02:13:41.944Z,-6.06
2022-12-18T02:18:54.778Z,-6.12
2022-12-18T02:24:20.905Z,-6.17
2022-12-18T02:29:33.288Z,-6.19
2022-12-18T02:34:45.836Z,-6.23
2022-12-18T02:39:59.744Z,-6.26
2022-12-18T02:45:09.610Z,-6.33
2022-12-18T02:50:23.775Z,-6.39
2022-12-18T02:55:46.259Z,-6.45
2022-12-18T03:01:02.684Z,-6.52
2022-12-18T03:06:16.516Z,-6.57
2022-12-18T03:11:45.382Z,-6.61
2022-12-18T03:16:58.036Z,-6.66
2022-12-18T03:22:09.985Z,-6.69
2022-12-18T03:27:29.098Z,-6.73
2022-12-18T03:32:43.494Z,-6.77
2022-12-18T03:37:52.377Z,-6.81
2022-12-18T03:43:07.162Z,-6.86
2022-12-18T03:48:24.755Z,-6.90
2022-12-18T03:53:41.356Z,-6.94
2022-12-18T03:58:53.032Z,-6.97
2022-12-18T04:04:06.545Z,-7.02
2022-12-18T04:09:16.997Z,-7.07
2022-12-18T04:14:28.151Z,-7.13
2022-12-18T04:19:37.989Z,-7.17
2022-12-18T04:24:46.406Z,-7.22
2022-12-18T04:30:01.467Z,-7.25
2022-12-18T04:35:13.373Z,-7.27
2022-12-18T04:40:23.647Z,-7.30
2022-12-18T04:45:32.551Z,-7.36
2022-12-18T04:50:40.983Z,-7.43
2022-12-18T04:55:49.341Z,-7.49
2022-12-18T05:00:57.550Z,-7.53
2022-12-18T05:06:06.029Z,-7.58
2022-12-18T05:11:17.074Z,-7.59
2022-12-18T05:16:25.584Z,-7.61
2022-12-18T05:21:33.858Z,-7.64
2022-12-18T05:26:42.413Z,-7.66
2022-12-18T05:31:50.631Z,-7.69
2022-12-18T05:36:59.248Z,-7.72
2022-12-18T05:42:07.885Z,-7.76
2022-12-18T05:47:16.357Z,-7.80
2022-12-18T05:52:24.495Z,-7.87
2022-12-18T05:57:33.336Z,-7.95
2022-12-18T06:02:41.718Z,-8.00
2022-12-18T06:07:50.315Z,-8.03
2022-12-18T06:12:58.572Z,-8.04
2022-12-18T06:18:07.291Z,-8.04
2022-12-18T06:23:15.801Z,-8.02
2022-12-18T06:28:24.634Z,-7.99
2022-12-18T06:33:32.982Z,-7.94
2022-12-18T06:38:43.759Z,-7.90
2022-12-18T06:43:54.618Z,-7.84
2022-12-18T06:49:07.065Z,-7.76
2022-12-18T06:54:15.315Z,-7.69
2022-12-18T06:59:23.937Z,-7.61
2022-12-18T07:04:34.924Z,-7.55
2022-12-18T07:09:43.167Z,-7.49
2022-12-18T07:14:51.589Z,-7.44
2022-12-18T07:20:00.202Z,-7.37
2022-12-18T07:25:10.110Z,-7.33
2022-12-18T07:30:18.606Z,-7.27
2022-12-18T07:35:26.789Z,-7.21
2022-12-18T07:40:35.361Z,-7.25
2022-12-18T07:45:43.768Z,-7.11
2022-12-18T07:50:52.400Z,-7.08
2022-12-18T07:56:28.597Z,-7.03
2022-12-18T08:01:31.956Z,-6.94
2022-12-18T08:06:42.619Z,-6.85
2022-12-18T08:11:55.762Z,-6.81
2022-12-18T08:17:03.929Z,-6.77
2022-12-18T08:22:13.198Z,-6.73
2022-12-18T08:27:29.451Z,-6.67
2022-12-18T08:32:39.747Z,-6.58
2022-12-18T08:37:48.333Z,-6.51
2022-12-18T08:43:14.445Z,-6.42
2022-12-18T08:48:22.830Z,-6.37
2022-12-18T08:53:35.802Z,-6.31
2022-12-18T08:58:44.671Z,-6.23
2022-12-18T09:03:56.067Z,-6.16
2022-12-18T09:09:04.316Z,-6.04
2022-12-18T09:14:14.017Z,-5.92
2022-12-18T09:19:22.210Z,-5.79
2022-12-18T09:24:30.452Z,-5.68
2022-12-18T09:29:39.041Z,-5.59
2022-12-18T09:34:47.104Z,-5.52
2022-12-18T09:39:55.681Z,-5.47
2022-12-18T09:45:05.753Z,-5.41
2022-12-18T09:50:28.025Z,-5.35
2022-12-18T09:55:37.556Z,-5.29
2022-12-18T10:00:54.152Z,-5.22
2022-12-18T10:06:11.102Z,-5.16
2022-12-18T10:11:40.424Z,-5.09
2022-12-18T10:17:04.078Z,-5.04
2022-12-18T10:22:22.500Z,-4.97
2022-12-18T10:27:33.729Z,-4.92
2022-12-18T10:32:42.209Z,-4.85
2022-12-18T10:38:06.773Z,-4.79
2022-12-18T10:43:18.744Z,-4.71
2022-12-18T10:48:27.414Z,-4.66
2022-12-18T10:53:38.279Z,-4.59
2022-12-18T10:58:58.289Z,-4.53
2022-12-18T11:04:12.417Z,-4.47
2022-12-18T11:09:26.619Z,-4.42
2022-12-18T11:14:43.503Z,-4.37
2022-12-18T11:20:00.641Z,-4.32
2022-12-18T11:25:36.619Z,-4.29
2022-12-18T11:30:45.865Z,-4.25
2022-12-18T11:35:56.681Z,-4.19
2022-12-18T11:41:14.440Z,-4.17
2022-12-18T11:46:34.165Z,-4.14
2022-12-18T11:51:49.075Z,-4.10
2022-12-18T11:57:10.322Z,-4.09
2022-12-18T12:02:41.091Z,-4.08
2022-12-18T12:07:59.947Z,-4.07
2022-12-18T12:13:26.477Z,-4.07
2022-12-18T12:18:48.485Z,-4.09
2022-12-18T12:24:05.481Z,-4.15
2022-12-18T12:29:33.035Z,-4.21
2022-12-18T12:34:47.753Z,-4.29
2022-12-18T12:39:57.585Z,-4.36
2022-12-18T12:45:08.347Z,-4.41
2022-12-18T12:50:22.096Z,-4.44
2022-12-18T12:55:32.180Z,-4.45
2022-12-18T13:00:50.440Z,-4.47
2022-12-18T13:06:03.439Z,-4.46
2022-12-18T13:12:00.451Z,-4.47
2022-12-18T13:17:37.899Z,-4.46
2022-12-18T13:22:49.798Z,-4.45
2022-12-18T13:28:16.191Z,-4.45
2022-12-18T13:39:38.701Z,-4.45
2022-12-18T13:44:48.698Z,-4.44
2022-12-18T13:49:57.748Z,-4.42
2022-12-18T13:55:10.810Z,-4.40
2022-12-18T14:00:33.547Z,-4.38
2022-12-18T14:05:44.363Z,-4.35
2022-12-18T14:10:54.932Z,-4.32
2022-12-18T14:16:06.954Z,-4.30
2022-12-18T14:21:23.650Z,-4.28
2022-12-18T14:26:34.581Z,-4.26
2022-12-18T14:31:42.912Z,-4.24
2022-12-18T14:36:58.392Z,-4.22
2022-12-18T14:42:07.118Z,-4.21
2022-12-18T14:47:20.838Z,-4.20
2022-12-18T14:52:34.764Z,-4.18
2022-12-18T14:57:44.863Z,-4.17
2022-12-18T15:02:56.740Z,-4.17
2022-12-18T15:08:05.536Z,-4.16
2022-12-18T15:13:26.023Z,-4.15
2022-12-18T15:18:37.897Z,-4.16
2022-12-18T15:23:52.528Z,-4.16
2022-12-18T15:29:04.279Z,-4.17
2022-12-18T15:34:25.210Z,-4.17
2022-12-18T15:39:33.545Z,-4.18
2022-12-18T15:44:42.348Z,-4.17
2022-12-18T15:49:51.138Z,-4.18
2022-12-18T15:55:19.021Z,-4.19
2022-12-18T16:00:28.064Z,-4.20
2022-12-18T16:05:36.857Z,-4.21
2022-12-18T16:10:45.555Z,-4.23
2022-12-18T16:15:54.267Z,-4.26
2022-12-18T16:21:03.520Z,-4.29
2022-12-18T16:26:12.883Z,-4.32
2022-12-18T16:31:21.112Z,-4.34
2022-12-18T16:37:58.797Z,-4.38
2022-12-18T16:43:39.466Z,-4.40
2022-12-18T16:48:48.165Z,-4.35
2022-12-18T16:53:57.517Z,-4.36
2022-12-18T16:59:08.335Z,-4.37
2022-12-18T17:04:16.774Z,-4.40
2022-12-18T17:09:27.246Z,-4.44
2022-12-18T17:14:37.013Z,-4.47
2022-12-18T17:19:45.624Z,-4.48
2022-12-18T17:24:54.299Z,-4.50
2022-12-18T17:30:02.431Z,-4.52
2022-12-18T17:35:11.848Z,-4.55
2022-12-18T17:40:20.404Z,-4.57
2022-12-18T17:45:29.477Z,-4.60
2022-12-18T17:50:39.010Z,-4.64
2022-12-18T17:55:55.251Z,-4.67
2022-12-18T18:01:07.485Z,-4.78
2022-12-18T18:06:14.232Z,-4.72
2022-12-18T18:11:43.857Z,-4.73
2022-12-18T18:16:54.042Z,-4.75
2022-12-18T18:22:04.753Z,-4.77
2022-12-18T18:27:13.606Z,-4.80
2022-12-18T18:32:21.989Z,-4.83
2022-12-18T18:37:30.242Z,-4.87
2022-12-18T18:42:38.881Z,-4.90
2022-12-18T18:47:47.168Z,-4.94
2022-12-18T18:52:56.763Z,-4.97
2022-12-18T18:58:05.571Z,-5.01
2022-12-18T19:03:15.810Z,-5.04
2022-12-18T19:08:24.665Z,-5.06
2022-12-18T19:13:35.264Z,-5.08
2022-12-18T19:18:42.990Z,-5.16
2022-12-18T19:23:51.982Z,-5.09
2022-12-18T19:29:04.860Z,-5.12
2022-12-18T19:34:14.071Z,-5.13
2022-12-18T19:39:23.303Z,-5.15
2022-12-18T19:44:31.472Z,-5.24
2022-12-18T19:49:40.358Z,-5.16
2022-12-18T19:54:49.319Z,-5.17
2022-12-18T19:59:57.739Z,-5.20
2022-12-18T20:05:06.620Z,-5.21
2022-12-18T20:10:17.770Z,-5.23
2022-12-18T20:15:27.490Z,-5.25
2022-12-18T20:20:36.368Z,-5.24
2022-12-18T20:25:45.143Z,-5.24
2022-12-18T20:30:53.668Z,-5.25
2022-12-18T20:36:07.739Z,-5.25
2022-12-18T20:41:21.031Z,-5.24
2022-12-18T20:46:29.566Z,-5.24
2022-12-18T20:51:37.803Z,-5.23
2022-12-18T20:56:46.459Z,-5.24
2022-12-18T21:01:59.062Z,-5.25
2022-12-18T21:07:07.515Z,-5.26
2022-12-18T21:12:40.239Z,-5.27
2022-12-18T21:17:55.215Z,-5.27
2022-12-18T21:23:14.277Z,-5.25
2022-12-18T21:28:26.834Z,-5.25
2022-12-18T21:33:34.942Z,-5.25
2022-12-18T21:38:43.204Z,-5.25
2022-12-18T21:44:09.517Z,-5.24
2022-12-18T21:49:21.705Z,-5.24
2022-12-18T21:54:31.200Z,-5.23
2022-12-18T21:59:42.426Z,-5.22
2022-12-18T22:04:51.201Z,-5.22
2022-12-18T22:09:59.568Z,-5.27
2022-12-18T22:15:11.425Z,-5.17
2022-12-18T22:20:20.400Z,-5.17
2022-12-18T22:25:28.947Z,-5.17
2022-12-18T22:30:37.316Z,-5.17
2022-12-18T22:35:45.929Z,-5.15
2022-12-18T22:40:54.801Z,-5.13
2022-12-18T22:46:12.500Z,-5.12
2022-12-18T22:51:22.058Z,-5.09
2022-12-18T22:56:30.305Z,-5.07
2022-12-18T23:01:38.964Z,-5.07
2022-12-18T23:06:48.903Z,-5.07
2022-12-18T23:11:57.270Z,-5.09
2022-12-18T23:17:05.344Z,-5.13
2022-12-18T23:22:13.914Z,-5.20
2022-12-18T23:27:22.227Z,-5.25
2022-12-18T23:32:30.846Z,-5.29
2022-12-18T23:43:10.304Z,-5.39
2022-12-18T23:48:18.574Z,-5.43
2022-12-18T23:53:27.161Z,-5.46
2022-12-18T23:58:35.340Z,-5.49
